Time;durP1;ratioP1;P1;durP2;ratioP2;P2;SDS_P1;SDS_P2;PMS_P1;PMS_P2;Temp;Humidity;BMP_temperature;BMP_pressure;BME280_temperature;BME280_humidity;BME280_pressure;Samples;Min_cycle;Max_cycle;Signal;HPM_P1;HPM_P2
2021/07/27 00:01:07;;;;;;;47.53;25.98;;;;;;;19.77;87.33;101091.28;4786565;29;20083;-38
2021/07/27 00:03:34;;;;;;;47.22;25.88;;;;;;;19.78;87.22;101091.09;4798184;29;20073;-38
2021/07/27 00:06:00;;;;;;;47.97;26.63;;;;;;;19.83;86.59;101085.97;4790859;29;20061;-38
2021/07/27 00:08:34;;;;;;;49.63;27.40;;;;;;;19.80;86.13;101089.03;4804523;29;20090;-39
2021/07/27 00:11:02;;;;;;;54.03;28.30;;;;;;;19.78;86.92;101088.44;4800576;29;20059;-39
2021/07/27 00:13:28;;;;;;;48.15;24.38;;;;;;;19.71;86.40;101085.72;4787615;29;20093;-38
2021/07/27 00:15:55;;;;;;;54.83;29.02;;;;;;;19.48;87.98;101085.19;4797312;29;20090;-38
2021/07/27 00:18:21;;;;;;;53.95;28.45;;;;;;;19.65;87.51;101088.34;4792058;29;20058;-38
2021/07/27 00:20:48;;;;;;;55.13;28.77;;;;;;;19.62;87.61;101094.06;4797479;29;20146;-38
2021/07/27 00:23:15;;;;;;;53.70;28.77;;;;;;;19.72;87.07;101091.88;4791365;29;20391;-39
2021/07/27 00:25:42;;;;;;;49.60;26.25;;;;;;;19.77;86.73;101088.63;4793677;29;20851;-38
2021/07/27 00:28:11;;;;;;;50.23;28.17;;;;;;;19.62;87.03;101094.06;4793950;29;20061;-38
2021/07/27 00:30:37;;;;;;;50.40;28.13;;;;;;;19.60;87.49;101098.75;4792228;29;20381;-39
2021/07/27 00:33:04;;;;;;;52.92;27.67;;;;;;;19.44;88.61;101094.59;4793112;29;20086;-38
2021/07/27 00:35:32;;;;;;;56.70;28.38;;;;;;;19.45;88.28;101098.91;4791660;29;20142;-38
2021/07/27 00:38:08;;;;;;;48.60;25.55;;;;;;;19.41;88.77;101098.50;4800541;29;20904;-38
2021/07/27 00:40:39;;;;;;;52.85;28.77;;;;;;;19.51;88.45;101098.13;4787547;29;20050;-39
2021/07/27 00:43:13;;;;;;;54.97;29.90;;;;;;;19.46;88.27;101106.69;4794067;29;20130;-38
2021/07/27 00:45:40;;;;;;;55.88;29.98;;;;;;;19.33;89.14;101104.78;4792782;29;20065;-38
2021/07/27 00:48:07;;;;;;;56.22;30.13;;;;;;;19.28;89.16;101112.53;4797911;29;20161;-38
2021/07/27 00:50:34;;;;;;;55.85;28.77;;;;;;;19.25;89.57;101106.78;4795837;29;20149;-38
2021/07/27 00:53:03;;;;;;;54.63;30.20;;;;;;;19.30;88.99;101112.34;4792296;29;20085;-38
2021/07/27 00:55:30;;;;;;;57.22;30.48;;;;;;;19.31;88.94;101106.84;4794917;29;20157;-38
2021/07/27 00:57:57;;;;;;;58.25;30.55;;;;;;;19.20;89.92;101112.69;4790522;29;20085;-38
2021/07/27 01:00:24;;;;;;;57.20;31.10;;;;;;;19.38;88.82;101119.34;4798035;29;20114;-38
2021/07/27 01:02:51;;;;;;;57.58;31.52;;;;;;;19.45;88.23;101115.69;4790022;29;20181;-38
2021/07/27 01:05:19;;;;;;;61.78;31.75;;;;;;;19.49;87.77;101118.78;4797790;29;20504;-38
2021/07/27 01:07:45;;;;;;;59.50;31.65;;;;;;;19.44;88.37;101111.38;4786721;29;20137;-38
2021/07/27 01:10:16;;;;;;;62.15;32.53;;;;;;;19.38;87.99;101117.50;4793892;29;20535;-38
2021/07/27 01:12:49;;;;;;;68.93;32.58;;;;;;;19.43;88.04;101104.44;4796533;29;20138;-38
2021/07/27 01:15:16;;;;;;;55.55;31.00;;;;;;;19.53;86.83;101106.72;4799642;29;20123;-39
2021/07/27 01:17:44;;;;;;;55.08;27.85;;;;;;;19.55;86.42;101110.00;4801125;29;20137;-39
2021/07/27 01:20:18;;;;;;;58.87;30.63;;;;;;;19.62;86.39;101112.69;4788916;29;20506;-39
2021/07/27 01:39:22;;;;;;;61.47;34.33;;;;;;;19.67;85.00;101099.59;4794700;29;20086;-38
2021/07/27 01:42:05;;;;;;;66.72;34.40;;;;;;;19.74;84.46;101093.31;4784228;29;20145;-38
2021/07/27 01:44:33;;;;;;;66.93;35.65;;;;;;;19.32;86.97;101079.19;4793765;29;20069;-38
2021/07/27 01:46:59;;;;;;;60.65;33.47;;;;;;;19.61;85.84;101079.13;4790991;29;20483;-39
2021/07/27 01:49:26;;;;;;;56.38;32.15;;;;;;;19.68;84.42;101080.78;4793466;29;20671;-39
2021/07/27 01:51:53;;;;;;;59.35;33.40;;;;;;;19.35;86.29;101070.84;4799097;29;20082;-39
2021/07/27 01:54:40;;;;;;;67.30;36.57;;;;;;;19.56;85.17;101069.06;4794717;29;20507;-38
2021/07/27 01:57:09;;;;;;;68.18;35.88;;;;;;;19.66;84.39;101069.53;4802098;29;20078;-38
2021/07/27 01:59:40;;;;;;;63.28;34.45;;;;;;;19.82;83.79;101065.69;4788853;29;20142;-39
2021/07/27 02:02:08;;;;;;;67.85;36.08;;;;;;;19.64;84.03;101062.75;4796752;29;20146;-39
2021/07/27 02:04:34;;;;;;;62.90;36.13;;;;;;;19.66;84.42;101061.53;4792603;29;20068;-38
2021/07/27 02:07:01;;;;;;;65.85;35.05;;;;;;;19.63;84.91;101061.94;4801468;29;20074;-38
2021/07/27 02:09:28;;;;;;;71.00;38.78;;;;;;;19.63;84.80;101053.13;4802541;29;20097;-38
2021/07/27 02:11:59;;;;;;;67.35;38.97;;;;;;;19.74;84.73;101058.72;4800181;29;20055;-38
2021/07/27 02:15:03;;;;;;;71.30;38.40;;;;;;;19.40;86.08;101059.59;4800429;29;20054;-38
2021/07/27 02:17:12;;;;;;;60.97;34.33;;;;;;;19.74;84.17;101053.41;4794818;29;20150;-39
2021/07/27 02:19:39;;;;;;;66.40;37.88;;;;;;;19.82;84.17;101057.72;4802341;29;20479;-39
2021/07/27 02:22:05;;;;;;;60.42;34.15;;;;;;;19.90;83.02;101065.50;4794603;29;20071;-38
2021/07/27 02:24:32;;;;;;;75.78;41.10;;;;;;;19.66;84.23;101064.19;4802468;29;21900;-38
2021/07/27 02:26:58;;;;;;;78.15;41.20;;;;;;;19.64;84.99;101068.91;4789484;29;20058;-38
2021/07/27 02:29:25;;;;;;;72.10;40.70;;;;;;;19.70;84.43;101073.44;4796312;29;20512;-38
2021/07/27 02:31:52;;;;;;;76.78;40.08;;;;;;;19.69;84.04;101066.44;4792662;29;20058;-38
2021/07/27 02:34:19;;;;;;;72.95;41.10;;;;;;;19.70;83.86;101061.97;4804795;29;20446;-38
2021/07/27 02:36:45;;;;;;;76.75;42.63;;;;;;;19.69;84.39;101063.78;4815545;29;20141;-38
2021/07/27 02:39:11;;;;;;;72.22;42.00;;;;;;;19.76;83.33;101079.81;4796388;29;20164;-38
2021/07/27 02:41:38;;;;;;;78.15;43.35;;;;;;;19.70;83.53;101073.44;4810189;29;20779;-39
2021/07/27 02:44:04;;;;;;;74.43;43.00;;;;;;;19.75;83.41;101073.66;4805972;29;20097;-39
2021/07/27 02:46:31;;;;;;;73.00;43.03;;;;;;;19.54;83.93;101074.59;4799996;29;20501;-39
2021/07/27 02:48:58;;;;;;;78.25;43.38;;;;;;;19.57;84.38;101073.38;4809429;29;20495;-39
2021/07/27 02:51:25;;;;;;;72.63;42.85;;;;;;;19.74;83.07;101068.56;4817384;29;20060;-38
2021/07/27 02:53:51;;;;;;;71.72;41.45;;;;;;;19.80;82.71;101078.41;4794210;29;20149;-38
2021/07/27 02:56:20;;;;;;;73.53;41.95;;;;;;;19.73;83.26;101082.88;4790239;29;20637;-38
2021/07/27 02:58:46;;;;;;;68.00;39.35;;;;;;;19.68;83.03;101086.13;4798935;29;20105;-38
2021/07/27 03:01:12;;;;;;;68.13;40.10;;;;;;;19.36;84.24;101088.44;4797873;29;20743;-38
2021/07/27 03:03:39;;;;;;;76.13;43.45;;;;;;;19.12;86.00;101091.59;4806572;29;20079;-38
2021/07/27 03:06:07;;;;;;;72.53;41.00;;;;;;;19.38;85.06;101090.91;4807727;29;20124;-38
2021/07/27 03:08:50;;;;;;;82.03;45.00;;;;;;;19.53;83.90;101090.75;4806158;29;20214;-38
2021/07/27 03:11:17;;;;;;;77.15;43.63;;;;;;;19.36;84.80;101087.59;4797851;29;20238;-38
2021/07/27 03:13:44;;;;;;;74.78;43.45;;;;;;;19.55;84.25;101094.84;4807289;29;20146;-38
2021/07/27 03:16:15;;;;;;;89.07;45.97;;;;;;;19.38;84.08;101090.09;4807745;29;20187;-38
2021/07/27 03:18:51;;;;;;;80.90;44.60;;;;;;;19.52;84.56;101102.41;4800601;29;20082;-38
2021/07/27 03:21:24;;;;;;;82.40;44.30;;;;;;;19.63;84.15;101098.38;4802907;29;20618;-38
2021/07/27 03:23:51;;;;;;;82.63;43.88;;;;;;;19.78;83.36;101099.06;4800792;29;20149;-38
2021/07/27 03:26:20;;;;;;;69.90;41.25;;;;;;;19.81;82.08;101095.19;4808855;29;20142;-38
2021/07/27 03:28:47;;;;;;;82.55;45.58;;;;;;;19.38;84.31;101098.06;4800686;29;20555;-39
2021/07/27 03:31:14;;;;;;;74.13;40.92;;;;;;;19.62;84.23;101102.03;4808705;29;20518;-39
2021/07/27 03:33:41;;;;;;;71.78;42.90;;;;;;;19.74;82.77;101100.50;4795865;29;20142;-38
2021/07/27 03:36:08;;;;;;;77.20;42.95;;;;;;;19.83;82.62;101099.28;4803871;29;20550;-38
2021/07/27 03:38:38;;;;;;;72.88;41.67;;;;;;;19.90;81.80;101099.31;4803307;29;20118;-38
2021/07/27 03:41:07;;;;;;;77.95;42.67;;;;;;;19.90;82.47;101101.97;4800846;29;20510;-38
2021/07/27 03:43:33;;;;;;;;;;;;;;;19.88;81.57;101096.84;4799641;29;20609;-38
2021/07/27 03:46:01;;;;;;;77.97;42.88;;;;;;;19.79;82.05;101097.22;4791296;29;19929;-38
2021/07/27 03:48:27;;;;;;;69.65;40.05;;;;;;;19.69;82.58;101100.22;4794448;29;20128;-38
2021/07/27 03:50:53;;;;;;;79.32;43.63;;;;;;;19.42;83.29;101094.78;4791552;29;20118;-38
2021/07/27 03:53:21;;;;;;;71.93;42.45;;;;;;;19.62;83.27;101102.03;4798664;29;20606;-38
2021/07/27 03:55:48;;;;;;;76.80;42.20;;;;;;;19.65;83.14;101096.34;4798620;29;20078;-39
2021/07/27 03:58:14;;;;;;;72.15;41.63;;;;;;;19.67;82.77;101102.28;4792562;29;20154;-39
2021/07/27 04:00:40;;;;;;;74.07;40.92;;;;;;;19.56;83.41;101099.16;4794805;29;20154;-39
2021/07/27 04:03:08;;;;;;;75.07;39.97;;;;;;;19.67;82.95;101097.75;4790934;29;20065;-38
2021/07/27 04:05:35;;;;;;;71.00;39.70;;;;;;;19.59;83.00;101099.78;4807824;29;20066;-38
2021/07/27 04:08:01;;;;;;;69.43;38.20;;;;;;;19.50;83.38;101105.28;4800433;29;20822;-38
2021/07/27 04:10:28;;;;;;;65.78;36.05;;;;;;;19.47;83.50;101102.19;4808652;29;20097;-38
2021/07/27 04:12:57;;;;;;;62.03;35.85;;;;;;;19.54;83.03;101111.00;4797414;29;20583;-38
2021/07/27 04:15:24;;;;;;;52.17;30.73;;;;;;;19.62;82.46;101104.69;4803012;29;20062;-38
2021/07/27 04:17:50;;;;;;;63.78;36.92;;;;;;;19.43;83.69;101106.28;4803361;29;20154;-38
2021/07/27 04:20:17;;;;;;;56.70;34.17;;;;;;;19.27;84.71;101105.59;4802072;29;20094;-38
2021/07/27 04:22:43;;;;;;;59.97;35.97;;;;;;;19.26;84.85;101109.25;4806313;29;20153;-38
2021/07/27 04:25:10;;;;;;;56.67;33.83;;;;;;;19.25;84.63;101112.94;4798000;29;20186;-38
2021/07/27 04:27:36;;;;;;;61.95;35.78;;;;;;;19.29;84.62;101106.22;4805811;29;20086;-38
2021/07/27 04:30:03;;;;;;;57.03;34.78;;;;;;;19.10;86.30;101098.94;4807263;29;20149;-39
2021/07/27 04:32:30;;;;;;;53.58;33.05;;;;;;;18.96;86.29;101098.03;4801315;29;20054;-38
2021/07/27 04:34:56;;;;;;;50.38;31.45;;;;;;;18.98;87.11;101101.34;4805613;29;20118;-38
2021/07/27 04:37:23;;;;;;;53.22;33.85;;;;;;;18.77;87.92;101096.84;4802606;29;20129;-39
2021/07/27 04:39:53;;;;;;;55.20;33.95;;;;;;;19.00;86.07;101101.97;4816193;29;20109;-39
2021/07/27 04:42:20;;;;;;;56.55;33.85;;;;;;;18.98;87.30;101092.53;4796896;29;20058;-39
2021/07/27 04:44:46;;;;;;;56.13;33.33;;;;;;;18.83;88.33;101096.09;4806656;29;20629;-39
2021/07/27 04:47:13;;;;;;;44.22;29.08;;;;;;;18.80;87.43;101104.50;4800831;29;20149;-38
2021/07/27 04:49:44;;;;;;;56.53;33.53;;;;;;;18.77;87.67;101095.00;4804438;29;20476;-39
2021/07/27 04:52:12;;;;;;;54.47;32.47;;;;;;;18.81;88.09;101094.66;4806371;29;20662;-38
2021/07/27 04:54:50;;;;;;;50.30;30.73;;;;;;;18.88;88.04;101095.56;4809619;29;20380;-38
2021/07/27 04:57:17;;;;;;;;;;;;;;;19.04;87.10;101097.88;4808567;29;20063;-38
2021/07/27 04:59:43;;;;;;;48.70;30.33;;;;;;;19.23;85.61;101095.53;4814402;29;19978;-38
2021/07/27 05:02:13;;;;;;;45.08;28.95;;;;;;;19.32;83.74;101094.34;4799434;29;20742;-39
2021/07/27 05:04:41;;;;;;;49.92;31.42;;;;;;;19.43;83.75;101095.63;4799980;29;20055;-38
2021/07/27 05:07:11;;;;;;;50.92;31.05;;;;;;;19.30;84.19;101097.19;4804139;29;20094;-38
2021/07/27 05:09:37;;;;;;;48.53;28.20;;;;;;;19.33;84.31;101098.66;4796792;29;20097;-38
2021/07/27 05:12:04;;;;;;;50.17;29.90;;;;;;;19.31;84.38;101096.19;4801443;29;20054;-38
2021/07/27 05:14:31;;;;;;;45.05;28.15;;;;;;;19.33;84.14;101098.66;4799841;29;20960;-38
2021/07/27 05:17:08;;;;;;;44.25;27.67;;;;;;;19.49;83.00;101094.84;4802023;29;20058;-38
2021/07/27 05:19:36;;;;;;;40.92;27.20;;;;;;;19.46;82.81;101092.56;4799107;29;20062;-38
2021/07/27 05:22:03;;;;;;;45.27;27.27;;;;;;;19.33;82.72;101091.50;4793696;29;20059;-38
2021/07/27 05:24:29;;;;;;;40.22;25.77;;;;;;;19.27;82.68;101086.16;4797195;29;20766;-38
2021/07/27 05:26:56;;;;;;;42.05;25.58;;;;;;;19.31;82.25;101088.22;4794795;29;20452;-38
2021/07/27 05:29:22;;;;;;;37.50;24.80;;;;;;;19.46;80.80;101081.94;4800516;29;20174;-38
2021/07/27 05:31:49;;;;;;;33.58;22.10;;;;;;;19.35;81.23;101084.13;4791567;29;20141;-38
2021/07/27 05:34:15;;;;;;;32.00;21.67;;;;;;;19.25;82.11;101080.19;4802576;29;20065;-38
2021/07/27 05:36:42;;;;;;;37.92;23.35;;;;;;;19.39;80.81;101081.09;4807505;29;20066;-38
2021/07/27 05:39:08;;;;;;;40.00;25.65;;;;;;;19.52;80.39;101081.13;4807093;29;20145;-38
2021/07/27 05:41:36;;;;;;;35.67;22.83;;;;;;;19.59;80.40;101078.50;4799172;29;20058;-39
2021/07/27 05:44:03;;;;;;;37.10;24.33;;;;;;;19.50;80.17;101083.16;4802294;29;20055;-38
2021/07/27 05:46:30;;;;;;;40.80;22.95;;;;;;;19.49;80.41;101084.19;4796323;29;20181;-38
2021/07/27 05:48:57;;;;;;;38.67;24.05;;;;;;;19.40;80.95;101080.88;4796512;29;20067;-38
2021/07/27 05:51:26;;;;;;;40.55;23.33;;;;;;;19.51;80.18;101085.63;4801498;29;20590;-38
2021/07/27 05:53:52;;;;;;;39.25;23.85;;;;;;;19.39;80.25;101081.91;4794649;29;20162;-38
2021/07/27 05:56:19;;;;;;;37.65;23.38;;;;;;;19.43;79.42;101080.50;4802769;29;20142;-39
2021/07/27 05:58:45;;;;;;;35.72;22.98;;;;;;;19.42;80.72;101073.50;4795825;29;20676;-39
2021/07/27 06:01:12;;;;;;;36.97;23.52;;;;;;;19.51;80.36;101075.00;4796814;29;20827;-38
2021/07/27 06:03:38;;;;;;;31.63;21.33;;;;;;;19.55;79.93;101078.09;4800081;29;20107;-38
2021/07/27 06:06:05;;;;;;;41.30;24.92;;;;;;;19.59;79.40;101073.19;4798186;29;20059;-38
2021/07/27 06:08:31;;;;;;;34.08;22.60;;;;;;;19.67;79.12;101075.66;4811263;29;20084;-38
2021/07/27 06:10:58;;;;;;;37.90;22.27;;;;;;;19.68;79.64;101078.13;4796870;29;20082;-38
2021/07/27 06:13:24;;;;;;;36.38;22.05;;;;;;;19.54;78.85;101071.94;4802006;29;20055;-38
2021/07/27 06:15:51;;;;;;;32.70;20.77;;;;;;;19.63;79.86;101072.56;4794227;29;20161;-38
2021/07/27 06:18:17;;;;;;;33.70;21.17;;;;;;;19.79;78.64;101082.06;4815989;29;20252;-38
2021/07/27 06:20:44;;;;;;;32.78;21.38;;;;;;;19.94;78.35;101080.06;4797067;29;20149;-38
2021/07/27 06:23:12;;;;;;;34.70;20.95;;;;;;;20.00;77.66;101078.44;4800949;29;20511;-38
2021/07/27 06:25:39;;;;;;;33.30;20.40;;;;;;;19.74;78.30;101080.00;4798459;29;20054;-38
2021/07/27 06:28:05;;;;;;;37.58;21.85;;;;;;;19.88;77.57;101094.19;4791285;29;20604;-38
2021/07/27 06:30:32;;;;;;;31.30;21.83;;;;;;;19.75;78.11;101089.63;4801314;29;20543;-37
2021/07/27 06:32:58;;;;;;;38.58;22.58;;;;;;;19.56;78.86;101088.53;4794234;29;20111;-37
2021/07/27 06:35:25;;;;;;;29.88;20.63;;;;;;;19.55;78.83;101086.88;4801359;29;20090;-37
2021/07/27 06:37:51;;;;;;;32.63;21.02;;;;;;;19.76;79.26;101087.81;4796133;29;20146;-38
2021/07/27 06:40:18;;;;;;;34.03;22.00;;;;;;;19.66;79.65;101096.13;4801103;29;20101;-38
2021/07/27 06:42:44;;;;;;;31.13;20.55;;;;;;;19.87;78.90;101092.53;4801484;29;20457;-38
2021/07/27 06:45:11;;;;;;;31.02;20.83;;;;;;;19.99;78.56;101107.91;4796200;29;20090;-38
2021/07/27 06:47:38;;;;;;;29.23;21.20;;;;;;;19.75;79.37;101100.28;4802229;29;20089;-38
2021/07/27 06:50:05;;;;;;;30.73;21.50;;;;;;;19.95;77.01;101103.00;4792357;29;20059;-39
2021/07/27 06:52:31;;;;;;;35.63;22.10;;;;;;;19.79;78.10;101100.69;4797504;29;20141;-39
2021/07/27 06:54:58;;;;;;;32.60;21.98;;;;;;;20.16;76.82;101101.19;4795510;29;20480;-39
2021/07/27 06:57:26;;;;;;;32.80;21.65;;;;;;;20.36;75.93;101106.53;4802291;29;20130;-39
2021/07/27 06:59:53;;;;;;;28.00;19.50;;;;;;;20.37;75.50;101107.38;4799444;29;20491;-39
2021/07/27 07:02:20;;;;;;;30.33;21.08;;;;;;;20.31;75.92;101112.47;4794817;29;20086;-38
2021/07/27 07:04:46;;;;;;;37.83;23.05;;;;;;;20.14;77.01;101111.22;4797034;29;20149;-38
2021/07/27 07:07:12;;;;;;;34.20;21.45;;;;;;;20.04;78.02;101111.63;4792409;29;20062;-38
2021/07/27 07:09:39;;;;;;;33.58;23.15;;;;;;;19.99;77.43;101114.06;4809015;29;20443;-38
2021/07/27 07:12:10;;;;;;;34.45;22.60;;;;;;;20.17;76.77;101121.47;4795138;29;20090;-38
2021/07/27 07:14:37;;;;;;;33.10;21.75;;;;;;;20.23;75.67;101120.66;4785241;29;20141;-38
2021/07/27 07:17:03;;;;;;;34.97;21.42;;;;;;;20.37;76.47;101118.84;4794832;29;20054;-38
2021/07/27 07:19:30;;;;;;;35.38;23.17;;;;;;;20.17;77.32;101123.31;4795147;29;20411;-38
2021/07/27 07:21:56;;;;;;;29.77;21.27;;;;;;;20.44;77.31;101122.31;4800087;29;20069;-38
2021/07/27 07:24:23;;;;;;;38.13;23.13;;;;;;;20.18;77.56;101132.94;4794571;29;20090;-38
2021/07/27 07:26:50;;;;;;;35.97;23.88;;;;;;;20.14;77.93;101135.19;4799266;29;20050;-38
2021/07/27 07:29:16;;;;;;;34.10;23.23;;;;;;;20.34;78.03;101128.03;4794605;29;20062;-38
2021/07/27 07:31:43;;;;;;;35.65;24.05;;;;;;;20.58;75.72;101130.31;4796105;29;20149;-38
2021/07/27 07:34:09;;;;;;;36.53;23.80;;;;;;;20.74;75.36;101127.28;4791047;29;20174;-38
2021/07/27 07:36:36;;;;;;;43.58;25.83;;;;;;;20.46;75.46;101122.91;4800842;29;20090;-38
2021/07/27 07:39:02;;;;;;;31.17;23.30;;;;;;;20.69;75.64;101119.88;4800410;29;20082;-38
2021/07/27 07:41:29;;;;;;;35.90;23.92;;;;;;;20.94;74.30;101121.91;4794372;29;20150;-38
2021/07/27 07:43:55;;;;;;;34.70;23.23;;;;;;;20.80;75.59;101125.63;4787171;29;20138;-38
2021/07/27 07:46:22;;;;;;;32.00;23.17;;;;;;;20.81;74.58;101120.06;4788276;29;20082;-38
2021/07/27 07:48:48;;;;;;;34.22;24.55;;;;;;;21.21;73.86;101119.16;4800208;29;20602;-38
2021/07/27 07:51:14;;;;;;;29.92;21.85;;;;;;;21.11;74.99;101124.94;4794395;29;20145;-39
2021/07/27 07:53:41;;;;;;;30.98;22.90;;;;;;;20.87;75.18;101121.91;4800108;29;20146;-39
2021/07/27 07:56:09;;;;;;;32.30;22.38;;;;;;;21.38;73.11;101120.34;4800440;29;20452;-39
2021/07/27 07:58:35;;;;;;;30.80;22.20;;;;;;;21.69;70.96;101110.81;4790270;29;20093;-39
2021/07/27 08:01:06;;;;;;;33.47;23.90;;;;;;;21.96;71.36;101119.50;4795897;29;20062;-39
2021/07/27 08:03:33;;;;;;;31.42;21.58;;;;;;;21.68;71.93;101122.53;4794969;29;20058;-38
2021/07/27 08:05:59;;;;;;;36.28;23.17;;;;;;;21.72;70.43;101121.91;4799777;29;20093;-38
2021/07/27 08:08:26;;;;;;;36.45;24.52;;;;;;;21.47;71.23;101120.97;4800523;29;20142;-38
2021/07/27 08:10:53;;;;;;;31.42;22.02;;;;;;;21.57;72.14;101118.69;4800881;29;20137;-38
2021/07/27 08:13:20;;;;;;;32.05;21.17;;;;;;;21.19;74.14;101118.56;4794515;29;20154;-38
2021/07/27 08:15:48;;;;;;;35.65;23.77;;;;;;;21.42;72.49;101116.22;4792201;29;20146;-38
2021/07/27 08:18:18;;;;;;;36.45;23.52;;;;;;;21.26;73.61;101117.50;4801149;29;20135;-38
2021/07/27 08:20:45;;;;;;;40.42;24.92;;;;;;;20.92;75.87;101115.97;4794396;29;20576;-38
2021/07/27 08:23:11;;;;;;;31.98;21.70;;;;;;;21.30;74.18;101108.06;4799154;29;20086;-38
2021/07/27 08:25:38;;;;;;;37.17;25.17;;;;;;;21.52;72.35;101116.66;4790724;29;20149;-38
2021/07/27 08:28:04;;;;;;;40.25;25.48;;;;;;;21.76;72.15;101110.78;4796266;29;20135;-39
2021/07/27 08:30:31;;;;;;;35.55;22.65;;;;;;;22.01;72.06;101113.50;4794645;29;20101;-38
2021/07/27 08:32:57;;;;;;;37.70;25.13;;;;;;;21.63;72.96;101117.00;4798485;29;20165;-38
2021/07/27 08:35:24;;;;;;;29.45;21.85;;;;;;;21.35;74.63;101117.31;4799086;29;20069;-38
2021/07/27 08:37:51;;;;;;;35.75;25.52;;;;;;;21.70;72.87;101110.59;4794391;29;20489;-38
2021/07/27 08:40:19;;;;;;;36.00;23.85;;;;;;;21.63;71.91;101114.34;4796219;29;20137;-38
2021/07/27 08:42:46;;;;;;;37.58;24.30;;;;;;;21.65;72.32;101109.59;4790360;29;20066;-39
2021/07/27 08:45:14;;;;;;;38.70;24.15;;;;;;;21.78;71.71;101109.53;4799577;29;20145;-39
2021/07/27 08:47:47;;;;;;;33.13;22.95;;;;;;;21.76;73.06;101103.59;4794694;29;20154;-39
2021/07/27 08:50:14;;;;;;;34.40;23.55;;;;;;;22.16;70.02;101106.00;4799104;29;20145;-39
2021/07/27 08:52:41;;;;;;;33.67;23.45;;;;;;;22.26;70.24;101111.72;4796840;29;20141;-39
2021/07/27 08:55:09;;;;;;;30.83;23.45;;;;;;;22.23;70.85;101106.00;4792261;29;20086;-38
2021/07/27 08:57:45;;;;;;;30.73;21.90;;;;;;;22.03;71.74;101104.28;4799252;29;20142;-39
2021/07/27 09:00:12;;;;;;;32.80;23.25;;;;;;;21.85;71.91;101104.16;4792640;29;20090;-39
2021/07/27 09:02:38;;;;;;;29.93;22.10;;;;;;;22.57;69.06;101109.22;4799148;29;20590;-39
2021/07/27 09:05:10;;;;;;;32.47;23.17;;;;;;;22.73;66.84;101106.00;4790156;29;20214;-38
2021/07/27 09:07:37;;;;;;;30.88;22.58;;;;;;;23.10;65.90;101103.38;4798462;29;20450;-38
2021/07/27 09:10:21;;;;;;;31.27;22.25;;;;;;;23.04;67.22;101112.31;4801666;29;20055;-38
2021/07/27 09:13:02;;;;;;;28.35;21.05;;;;;;;23.04;66.39;101113.13;4799594;29;20454;-38
2021/07/27 09:15:37;;;;;;;27.38;21.13;;;;;;;23.15;64.50;101116.94;4794628;29;20090;-38
2021/07/27 09:18:04;;;;;;;28.95;20.83;;;;;;;23.39;64.30;101106.38;4784348;29;20555;-38
2021/07/27 09:20:41;;;;;;;29.58;20.15;;;;;;;23.02;62.74;101106.34;4795839;29;20146;-38
2021/07/27 09:23:12;;;;;;;26.38;19.02;;;;;;;23.13;63.43;101108.31;4780348;29;20058;-37
2021/07/27 09:25:46;;;;;;;28.52;19.00;;;;;;;23.04;62.34;101101.59;4799130;29;20113;-38
2021/07/27 09:28:13;;;;;;;26.17;16.55;;;;;;;22.86;63.92;101097.03;4793401;29;20111;-38
2021/07/27 09:30:42;;;;;;;23.27;16.88;;;;;;;23.20;63.63;101103.69;4798609;29;20090;-38
2021/07/27 09:33:11;;;;;;;23.20;18.33;;;;;;;23.05;61.10;101098.72;4788589;29;20086;-38
2021/07/27 09:35:39;;;;;;;22.15;16.73;;;;;;;23.01;63.35;101110.03;4799261;29;20141;-38
2021/07/27 09:38:13;;;;;;;;;;;;;;;23.23;62.07;101097.91;4794307;29;20575;-38
2021/07/27 09:41:04;;;;;;;23.23;18.00;;;;;;;23.17;63.05;101096.13;4799529;29;19978;-38
2021/07/27 09:43:42;;;;;;;21.48;16.77;;;;;;;23.57;62.29;101100.16;4792711;29;20054;-37
2021/07/27 09:46:10;;;;;;;23.13;18.40;;;;;;;23.74;61.62;101100.34;4793350;29;20511;-37
2021/07/27 09:48:40;;;;;;;23.27;18.15;;;;;;;23.90;61.31;101105.09;4796885;29;20058;-37
2021/07/27 09:51:07;;;;;;;25.23;17.13;;;;;;;24.07;60.61;101105.25;4792924;29;20500;-37
2021/07/27 09:53:34;;;;;;;29.80;18.00;;;;;;;24.08;59.64;101101.53;4799229;29;20070;-38
2021/07/27 09:56:03;;;;;;;23.50;17.20;;;;;;;24.31;59.34;101100.75;4793052;29;20058;-38
2021/07/27 09:58:29;;;;;;;23.33;17.52;;;;;;;23.70;62.66;101110.69;4795977;29;20780;-38
2021/07/27 10:01:06;;;;;;;23.88;18.35;;;;;;;23.20;63.33;101103.69;4789251;29;20119;-38
2021/07/27 10:03:47;;;;;;;24.85;17.15;;;;;;;23.07;63.67;101111.84;4798916;29;20063;-38
2021/07/27 10:06:21;;;;;;;22.08;17.05;;;;;;;23.04;64.47;101109.63;4782745;29;20116;-38
2021/07/27 10:08:53;;;;;;;24.90;18.58;;;;;;;23.12;63.27;101112.00;4807909;29;20543;-38
2021/07/27 10:11:33;;;;;;;22.45;15.55;;;;;;;23.47;62.98;101101.50;4801864;29;20543;-38
2021/07/27 10:14:15;;;;;;;21.88;15.35;;;;;;;23.81;60.75;101106.44;4792902;29;20085;-38
2021/07/27 10:16:42;;;;;;;18.98;14.60;;;;;;;24.00;58.01;101108.03;4802508;29;20058;-38
2021/07/27 10:19:13;;;;;;;17.67;13.55;;;;;;;24.14;57.48;101110.53;4796553;29;20123;-38
2021/07/27 10:21:40;;;;;;;20.60;14.63;;;;;;;24.90;55.79;101113.41;4801467;29;20097;-38
2021/07/27 10:24:23;;;;;;;16.83;13.13;;;;;;;24.83;53.96;101103.59;4796242;29;20055;-38
2021/07/27 10:26:50;;;;;;;21.73;14.00;;;;;;;24.59;55.28;101110.84;4796577;29;20097;-38
2021/07/27 10:29:29;;;;;;;18.77;13.88;;;;;;;24.12;55.91;101113.41;4792361;29;20063;-38
2021/07/27 10:31:58;;;;;;;22.60;13.95;;;;;;;23.89;57.51;101106.13;4801312;29;20158;-38
2021/07/27 10:34:33;;;;;;;23.27;13.68;;;;;;;23.96;56.76;101111.41;4795131;29;20146;-38
2021/07/27 10:37:16;;;;;;;22.70;15.15;;;;;;;24.32;56.02;101106.94;4801159;29;20062;-38
2021/07/27 10:39:57;;;;;;;18.10;13.38;;;;;;;24.32;57.02;101115.78;4792808;29;20090;-38
2021/07/27 10:42:25;;;;;;;18.85;14.35;;;;;;;23.70;57.49;101116.06;4784044;29;20095;-38
2021/07/27 10:44:52;;;;;;;21.58;13.85;;;;;;;23.56;58.73;101110.06;4800902;29;20139;-38
2021/07/27 10:47:20;;;;;;;19.08;13.93;;;;;;;23.40;59.22;101108.78;4783128;29;20467;-38
2021/07/27 10:50:01;;;;;;;18.52;13.38;;;;;;;23.49;60.15;101106.66;4801236;29;20832;-38
2021/07/27 10:52:29;;;;;;;18.00;13.90;;;;;;;23.29;59.08;101106.88;4794053;29;20157;-38
2021/07/27 10:54:58;;;;;;;24.45;13.68;;;;;;;23.72;58.84;101102.41;4795489;29;20090;-38
2021/07/27 10:57:48;;;;;;;20.80;14.00;;;;;;;24.05;57.84;101105.50;4794556;29;20139;-38
2021/07/27 11:00:14;;;;;;;19.95;14.25;;;;;;;23.31;58.90;101107.47;4801022;29;20125;-38
2021/07/27 11:02:41;;;;;;;19.20;13.90;;;;;;;23.15;60.41;101118.75;4793728;29;20174;-38
2021/07/27 11:05:11;;;;;;;20.38;15.38;;;;;;;23.72;58.25;101107.78;4800644;29;20069;-38
2021/07/27 11:07:38;;;;;;;20.25;16.05;;;;;;;23.85;58.18;101113.00;4799874;29;20051;-38
2021/07/27 11:10:05;;;;;;;22.15;15.82;;;;;;;23.94;58.13;101114.31;4802657;29;20510;-38
2021/07/27 11:12:36;;;;;;;24.15;16.88;;;;;;;23.74;59.42;101111.03;4799649;29;20055;-38
2021/07/27 11:15:23;;;;;;;25.58;18.23;;;;;;;23.29;60.87;101110.38;4794972;29;20061;-38
2021/07/27 11:17:57;;;;;;;22.50;15.95;;;;;;;23.39;61.54;101112.53;4796141;29;20495;-38
2021/07/27 11:20:27;;;;;;;26.83;16.48;;;;;;;23.74;60.68;101108.38;4793752;29;20858;-38
2021/07/27 11:23:00;;;;;;;20.65;16.50;;;;;;;23.94;59.79;101111.63;4799773;29;20086;-38
2021/07/27 11:25:28;;;;;;;26.98;18.15;;;;;;;23.73;59.61;101112.09;4794942;29;21053;-38
2021/07/27 11:27:55;;;;;;;22.20;16.63;;;;;;;24.76;58.28;101102.09;4800247;29;20137;-38
2021/07/27 11:30:35;;;;;;;24.50;16.40;;;;;;;24.32;57.85;101109.63;4797749;29;20094;-38
2021/07/27 11:33:09;;;;;;;23.45;15.65;;;;;;;23.68;58.99;101108.25;4796567;29;20055;-38